sensor_id;sensor_type;location;lat;lon;timestamp;P1;durP1;ratioP1;P2;durP2;ratioP2
8419;SDS011;4247;48.550;8.822;2023-04-16T00:00:58;0.63;;;0.60;;
8419;SDS011;4247;48.550;8.822;2023-04-16T00:03:25;0.60;;;0.60;;
8419;SDS011;4247;48.550;8.822;2023-04-16T00:05:51;0.87;;;0.77;;
8419;SDS011;4247;48.550;8.822;2023-04-16T00:08:20;1.17;;;0.80;;
8419;SDS011;4247;48.550;8.822;2023-04-16T00:10:48;1.57;;;1.07;;
8419;SDS011;4247;48.550;8.822;2023-04-16T00:13:15;0.73;;;0.63;;
8419;SDS011;4247;48.550;8.822;2023-04-16T00:15:43;1.27;;;1.17;;
8419;SDS011;4247;48.550;8.822;2023-04-16T00:18:10;0.93;;;0.90;;
8419;SDS011;4247;48.550;8.822;2023-04-16T00:20:38;0.80;;;0.80;;
8419;SDS011;4247;48.550;8.822;2023-04-16T00:23:05;0.97;;;0.90;;
8419;SDS011;4247;48.550;8.822;2023-04-16T00:25:31;1.20;;;1.10;;
8419;SDS011;4247;48.550;8.822;2023-04-16T00:27:58;1.40;;;1.30;;
8419;SDS011;4247;48.550;8.822;2023-04-16T00:30:25;1.03;;;1.00;;
8419;SDS011;4247;48.550;8.822;2023-04-16T00:32:53;1.00;;;1.00;;
8419;SDS011;4247;48.550;8.822;2023-04-16T00:35:20;1.53;;;1.20;;
8419;SDS011;4247;48.550;8.822;2023-04-16T00:37:47;1.67;;;1.50;;
8419;SDS011;4247;48.550;8.822;2023-04-16T00:40:14;1.80;;;1.47;;
8419;SDS011;4247;48.550;8.822;2023-04-16T00:42:40;1.43;;;1.33;;
8419;SDS011;4247;48.550;8.822;2023-04-16T00:45:08;1.70;;;1.40;;
8419;SDS011;4247;48.550;8.822;2023-04-16T00:47:35;1.53;;;1.43;;
8419;SDS011;4247;48.550;8.822;2023-04-16T00:50:04;1.50;;;1.40;;
8419;SDS011;4247;48.550;8.822;2023-04-16T00:52:32;1.43;;;1.33;;
8419;SDS011;4247;48.550;8.822;2023-04-16T00:55:00;1.50;;;1.40;;
8419;SDS011;4247;48.550;8.822;2023-04-16T00:57:27;1.50;;;1.40;;
8419;SDS011;4247;48.550;8.822;2023-04-16T00:59:54;2.07;;;1.57;;
8419;SDS011;4247;48.550;8.822;2023-04-16T01:02:22;1.40;;;1.30;;
8419;SDS011;4247;48.550;8.822;2023-04-16T01:04:49;1.10;;;1.00;;
8419;SDS011;4247;48.550;8.822;2023-04-16T01:07:17;1.53;;;1.30;;
8419;SDS011;4247;48.550;8.822;2023-04-16T01:09:44;1.67;;;1.57;;
8419;SDS011;4247;48.550;8.822;2023-04-16T01:12:11;2.17;;;1.50;;
8419;SDS011;4247;48.550;8.822;2023-04-16T01:14:38;1.30;;;1.20;;
8419;SDS011;4247;48.550;8.822;2023-04-16T01:17:05;2.13;;;1.70;;
8419;SDS011;4247;48.550;8.822;2023-04-16T01:19:32;1.50;;;1.40;;
8419;SDS011;4247;48.550;8.822;2023-04-16T01:22:01;1.53;;;1.30;;
8419;SDS011;4247;48.550;8.822;2023-04-16T01:24:28;1.20;;;1.13;;
8419;SDS011;4247;48.550;8.822;2023-04-16T01:26:56;1.37;;;1.07;;
8419;SDS011;4247;48.550;8.822;2023-04-16T01:29:22;1.67;;;1.33;;
8419;SDS011;4247;48.550;8.822;2023-04-16T01:31:49;1.70;;;1.20;;
8419;SDS011;4247;48.550;8.822;2023-04-16T01:34:16;1.60;;;1.50;;
8419;SDS011;4247;48.550;8.822;2023-04-16T01:36:43;1.93;;;1.33;;
8419;SDS011;4247;48.550;8.822;2023-04-16T01:39:11;1.33;;;1.10;;
8419;SDS011;4247;48.550;8.822;2023-04-16T01:41:39;1.30;;;1.20;;
8419;SDS011;4247;48.550;8.822;2023-04-16T01:44:06;1.17;;;1.07;;
8419;SDS011;4247;48.550;8.822;2023-04-16T01:46:33;1.23;;;1.13;;
8419;SDS011;4247;48.550;8.822;2023-04-16T01:49:00;0.87;;;0.87;;
8419;SDS011;4247;48.550;8.822;2023-04-16T01:51:27;0.80;;;0.80;;
8419;SDS011;4247;48.550;8.822;2023-04-16T01:53:54;1.47;;;1.00;;
8419;SDS011;4247;48.550;8.822;2023-04-16T01:56:23;0.70;;;0.70;;
8419;SDS011;4247;48.550;8.822;2023-04-16T01:58:50;1.27;;;0.73;;
8419;SDS011;4247;48.550;8.822;2023-04-16T02:01:17;0.80;;;0.80;;
8419;SDS011;4247;48.550;8.822;2023-04-16T02:03:44;1.80;;;0.60;;
8419;SDS011;4247;48.550;8.822;2023-04-16T02:06:11;0.53;;;0.53;;
8419;SDS011;4247;48.550;8.822;2023-04-16T02:08:37;0.77;;;0.77;;
8419;SDS011;4247;48.550;8.822;2023-04-16T02:11:04;0.50;;;0.50;;
8419;SDS011;4247;48.550;8.822;2023-04-16T02:13:32;0.50;;;0.50;;
8419;SDS011;4247;48.550;8.822;2023-04-16T02:15:59;1.83;;;0.60;;
8419;SDS011;4247;48.550;8.822;2023-04-16T02:18:26;0.60;;;0.60;;
8419;SDS011;4247;48.550;8.822;2023-04-16T02:20:53;0.60;;;0.50;;
8419;SDS011;4247;48.550;8.822;2023-04-16T02:23:22;0.57;;;0.57;;
8419;SDS011;4247;48.550;8.822;2023-04-16T02:25:49;0.50;;;0.50;;
8419;SDS011;4247;48.550;8.822;2023-04-16T02:28:16;0.43;;;0.43;;
8419;SDS011;4247;48.550;8.822;2023-04-16T02:30:44;0.80;;;0.60;;
8419;SDS011;4247;48.550;8.822;2023-04-16T02:33:11;0.90;;;0.60;;
8419;SDS011;4247;48.550;8.822;2023-04-16T02:35:38;0.60;;;0.60;;
8419;SDS011;4247;48.550;8.822;2023-04-16T02:38:05;0.70;;;0.70;;
8419;SDS011;4247;48.550;8.822;2023-04-16T02:40:32;0.70;;;0.50;;
8419;SDS011;4247;48.550;8.822;2023-04-16T02:42:59;0.50;;;0.50;;
8419;SDS011;4247;48.550;8.822;2023-04-16T02:45:26;0.40;;;0.40;;
8419;SDS011;4247;48.550;8.822;2023-04-16T02:47:54;0.50;;;0.50;;
8419;SDS011;4247;48.550;8.822;2023-04-16T02:50:20;0.40;;;0.40;;
8419;SDS011;4247;48.550;8.822;2023-04-16T02:52:47;0.50;;;0.50;;
8419;SDS011;4247;48.550;8.822;2023-04-16T02:55:15;0.37;;;0.37;;
8419;SDS011;4247;48.550;8.822;2023-04-16T02:57:42;0.50;;;0.40;;
8419;SDS011;4247;48.550;8.822;2023-04-16T03:00:09;0.50;;;0.50;;
8419;SDS011;4247;48.550;8.822;2023-04-16T03:02:37;0.60;;;0.60;;
8419;SDS011;4247;48.550;8.822;2023-04-16T03:05:05;0.53;;;0.53;;
8419;SDS011;4247;48.550;8.822;2023-04-16T03:07:32;0.73;;;0.50;;
8419;SDS011;4247;48.550;8.822;2023-04-16T03:09:59;0.50;;;0.50;;
8419;SDS011;4247;48.550;8.822;2023-04-16T03:12:26;0.63;;;0.53;;
8419;SDS011;4247;48.550;8.822;2023-04-16T03:14:52;0.97;;;0.90;;
8419;SDS011;4247;48.550;8.822;2023-04-16T03:17:19;0.70;;;0.70;;
8419;SDS011;4247;48.550;8.822;2023-04-16T03:19:46;0.70;;;0.70;;
8419;SDS011;4247;48.550;8.822;2023-04-16T03:22:16;0.70;;;0.70;;
8419;SDS011;4247;48.550;8.822;2023-04-16T03:24:42;0.80;;;0.80;;
8419;SDS011;4247;48.550;8.822;2023-04-16T03:27:09;0.80;;;0.80;;
8419;SDS011;4247;48.550;8.822;2023-04-16T03:29:36;1.20;;;1.10;;
8419;SDS011;4247;48.550;8.822;2023-04-16T03:32:03;1.33;;;1.23;;
8419;SDS011;4247;48.550;8.822;2023-04-16T03:34:30;1.33;;;1.23;;
8419;SDS011;4247;48.550;8.822;2023-04-16T03:36:57;1.57;;;1.20;;
8419;SDS011;4247;48.550;8.822;2023-04-16T03:39:25;2.00;;;1.57;;
8419;SDS011;4247;48.550;8.822;2023-04-16T03:41:52;1.73;;;1.63;;
8419;SDS011;4247;48.550;8.822;2023-04-16T03:44:18;2.03;;;1.83;;
8419;SDS011;4247;48.550;8.822;2023-04-16T03:46:45;2.43;;;2.03;;
8419;SDS011;4247;48.550;8.822;2023-04-16T03:49:12;1.87;;;1.37;;
8419;SDS011;4247;48.550;8.822;2023-04-16T03:51:39;3.27;;;2.10;;
8419;SDS011;4247;48.550;8.822;2023-04-16T03:54:06;2.17;;;1.70;;
8419;SDS011;4247;48.550;8.822;2023-04-16T03:56:34;2.27;;;1.70;;
8419;SDS011;4247;48.550;8.822;2023-04-16T03:59:01;3.63;;;1.50;;
8419;SDS011;4247;48.550;8.822;2023-04-16T04:01:27;3.47;;;2.13;;
8419;SDS011;4247;48.550;8.822;2023-04-16T04:03:54;1.73;;;1.57;;
8419;SDS011;4247;48.550;8.822;2023-04-16T04:06:21;3.37;;;2.63;;
8419;SDS011;4247;48.550;8.822;2023-04-16T04:08:48;2.77;;;2.50;;
8419;SDS011;4247;48.550;8.822;2023-04-16T04:11:15;3.33;;;1.90;;
8419;SDS011;4247;48.550;8.822;2023-04-16T04:13:43;3.10;;;2.50;;
8419;SDS011;4247;48.550;8.822;2023-04-16T04:16:10;3.73;;;2.30;;
8419;SDS011;4247;48.550;8.822;2023-04-16T04:18:37;3.90;;;2.77;;
8419;SDS011;4247;48.550;8.822;2023-04-16T04:21:04;2.40;;;2.20;;
8419;SDS011;4247;48.550;8.822;2023-04-16T04:23:31;2.40;;;2.13;;
8419;SDS011;4247;48.550;8.822;2023-04-16T04:25:58;5.10;;;2.87;;
8419;SDS011;4247;48.550;8.822;2023-04-16T04:28:27;3.30;;;2.63;;
8419;SDS011;4247;48.550;8.822;2023-04-16T04:30:56;1.97;;;1.80;;
8419;SDS011;4247;48.550;8.822;2023-04-16T04:33:23;2.73;;;2.53;;
8419;SDS011;4247;48.550;8.822;2023-04-16T04:35:50;2.97;;;1.90;;
8419;SDS011;4247;48.550;8.822;2023-04-16T04:38:17;1.90;;;1.77;;
8419;SDS011;4247;48.550;8.822;2023-04-16T04:40:46;3.20;;;1.90;;
8419;SDS011;4247;48.550;8.822;2023-04-16T04:43:12;2.10;;;1.70;;
8419;SDS011;4247;48.550;8.822;2023-04-16T04:45:39;4.17;;;1.63;;
8419;SDS011;4247;48.550;8.822;2023-04-16T04:48:08;2.60;;;1.70;;
8419;SDS011;4247;48.550;8.822;2023-04-16T04:50:34;2.23;;;1.20;;
8419;SDS011;4247;48.550;8.822;2023-04-16T04:53:01;1.70;;;1.50;;
8419;SDS011;4247;48.550;8.822;2023-04-16T04:55:33;1.47;;;1.13;;
8419;SDS011;4247;48.550;8.822;2023-04-16T04:58:01;2.27;;;1.70;;
8419;SDS011;4247;48.550;8.822;2023-04-16T05:00:28;1.50;;;1.40;;
8419;SDS011;4247;48.550;8.822;2023-04-16T05:02:55;1.43;;;1.30;;
8419;SDS011;4247;48.550;8.822;2023-04-16T05:05:23;1.70;;;1.50;;
8419;SDS011;4247;48.550;8.822;2023-04-16T05:07:50;1.57;;;1.33;;
8419;SDS011;4247;48.550;8.822;2023-04-16T05:10:17;1.80;;;1.70;;
8419;SDS011;4247;48.550;8.822;2023-04-16T05:12:44;2.60;;;1.73;;
8419;SDS011;4247;48.550;8.822;2023-04-16T05:15:12;3.87;;;2.47;;
8419;SDS011;4247;48.550;8.822;2023-04-16T05:17:39;2.43;;;1.70;;
8419;SDS011;4247;48.550;8.822;2023-04-16T05:20:06;3.07;;;2.70;;
8419;SDS011;4247;48.550;8.822;2023-04-16T05:22:35;5.17;;;2.60;;
8419;SDS011;4247;48.550;8.822;2023-04-16T05:25:02;3.60;;;2.43;;
8419;SDS011;4247;48.550;8.822;2023-04-16T05:27:29;3.27;;;2.63;;
8419;SDS011;4247;48.550;8.822;2023-04-16T05:29:56;6.43;;;3.83;;
8419;SDS011;4247;48.550;8.822;2023-04-16T05:32:24;10.07;;;4.53;;
8419;SDS011;4247;48.550;8.822;2023-04-16T05:34:51;4.87;;;3.60;;
8419;SDS011;4247;48.550;8.822;2023-04-16T05:37:18;6.30;;;4.30;;
8419;SDS011;4247;48.550;8.822;2023-04-16T05:39:46;6.77;;;4.27;;
8419;SDS011;4247;48.550;8.822;2023-04-16T05:42:13;10.20;;;4.80;;
8419;SDS011;4247;48.550;8.822;2023-04-16T05:44:40;6.30;;;3.97;;
8419;SDS011;4247;48.550;8.822;2023-04-16T05:47:07;7.30;;;3.97;;
8419;SDS011;4247;48.550;8.822;2023-04-16T05:49:34;6.10;;;4.03;;
8419;SDS011;4247;48.550;8.822;2023-04-16T05:52:01;9.77;;;4.90;;
8419;SDS011;4247;48.550;8.822;2023-04-16T05:54:28;4.90;;;3.30;;
8419;SDS011;4247;48.550;8.822;2023-04-16T05:56:56;5.83;;;3.87;;
8419;SDS011;4247;48.550;8.822;2023-04-16T05:59:23;5.80;;;4.03;;
8419;SDS011;4247;48.550;8.822;2023-04-16T06:01:50;6.80;;;4.73;;
8419;SDS011;4247;48.550;8.822;2023-04-16T06:04:17;5.10;;;3.83;;
8419;SDS011;4247;48.550;8.822;2023-04-16T06:06:43;6.40;;;3.97;;
8419;SDS011;4247;48.550;8.822;2023-04-16T06:09:10;6.77;;;4.57;;
8419;SDS011;4247;48.550;8.822;2023-04-16T06:11:37;5.57;;;3.57;;
8419;SDS011;4247;48.550;8.822;2023-04-16T06:14:05;5.77;;;4.10;;
8419;SDS011;4247;48.550;8.822;2023-04-16T06:16:32;5.77;;;3.30;;
8419;SDS011;4247;48.550;8.822;2023-04-16T06:18:59;6.73;;;3.50;;
8419;SDS011;4247;48.550;8.822;2023-04-16T06:21:26;5.80;;;4.33;;
8419;SDS011;4247;48.550;8.822;2023-04-16T06:23:53;7.17;;;4.27;;
8419;SDS011;4247;48.550;8.822;2023-04-16T06:26:20;9.00;;;4.83;;
8419;SDS011;4247;48.550;8.822;2023-04-16T06:28:47;11.13;;;5.63;;
8419;SDS011;4247;48.550;8.822;2023-04-16T06:31:16;7.87;;;5.00;;
8419;SDS011;4247;48.550;8.822;2023-04-16T06:33:42;7.80;;;5.20;;
8419;SDS011;4247;48.550;8.822;2023-04-16T06:36:09;9.03;;;4.37;;
8419;SDS011;4247;48.550;8.822;2023-04-16T06:38:36;7.00;;;4.87;;
8419;SDS011;4247;48.550;8.822;2023-04-16T06:41:03;10.70;;;6.67;;
8419;SDS011;4247;48.550;8.822;2023-04-16T06:43:29;11.07;;;6.43;;
8419;SDS011;4247;48.550;8.822;2023-04-16T06:45:57;10.20;;;6.07;;
8419;SDS011;4247;48.550;8.822;2023-04-16T06:48:25;10.87;;;6.37;;
8419;SDS011;4247;48.550;8.822;2023-04-16T06:50:53;11.83;;;5.30;;
8419;SDS011;4247;48.550;8.822;2023-04-16T06:53:19;13.90;;;7.77;;
8419;SDS011;4247;48.550;8.822;2023-04-16T06:55:46;13.03;;;7.33;;
8419;SDS011;4247;48.550;8.822;2023-04-16T06:58:13;12.30;;;6.40;;
8419;SDS011;4247;48.550;8.822;2023-04-16T07:00:39;12.03;;;7.37;;
8419;SDS011;4247;48.550;8.822;2023-04-16T07:03:06;13.70;;;7.40;;
8419;SDS011;4247;48.550;8.822;2023-04-16T07:05:34;19.38;;;10.23;;
8419;SDS011;4247;48.550;8.822;2023-04-16T07:08:01;13.87;;;8.57;;
8419;SDS011;4247;48.550;8.822;2023-04-16T07:10:28;23.93;;;9.70;;
8419;SDS011;4247;48.550;8.822;2023-04-16T07:12:55;14.67;;;8.53;;
8419;SDS011;4247;48.550;8.822;2023-04-16T07:15:22;14.83;;;8.20;;
8419;SDS011;4247;48.550;8.822;2023-04-16T07:17:48;16.30;;;8.73;;
8419;SDS011;4247;48.550;8.822;2023-04-16T07:20:16;16.10;;;9.00;;
8419;SDS011;4247;48.550;8.822;2023-04-16T07:22:44;17.27;;;8.83;;
8419;SDS011;4247;48.550;8.822;2023-04-16T07:25:11;17.83;;;8.47;;
8419;SDS011;4247;48.550;8.822;2023-04-16T07:27:38;15.70;;;8.70;;
8419;SDS011;4247;48.550;8.822;2023-04-16T07:30:05;15.93;;;8.40;;
8419;SDS011;4247;48.550;8.822;2023-04-16T07:32:33;16.73;;;8.60;;
8419;SDS011;4247;48.550;8.822;2023-04-16T07:35:00;15.70;;;8.20;;
8419;SDS011;4247;48.550;8.822;2023-04-16T07:37:27;15.97;;;8.77;;
8419;SDS011;4247;48.550;8.822;2023-04-16T07:39:56;15.80;;;9.20;;
8419;SDS011;4247;48.550;8.822;2023-04-16T07:42:24;14.03;;;9.23;;
8419;SDS011;4247;48.550;8.822;2023-04-16T07:44:51;13.27;;;7.23;;
8419;SDS011;4247;48.550;8.822;2023-04-16T07:47:18;13.63;;;8.53;;
8419;SDS011;4247;48.550;8.822;2023-04-16T07:49:46;23.73;;;7.93;;
8419;SDS011;4247;48.550;8.822;2023-04-16T07:52:13;12.83;;;8.53;;
8419;SDS011;4247;48.550;8.822;2023-04-16T07:54:40;11.97;;;8.20;;
8419;SDS011;4247;48.550;8.822;2023-04-16T07:57:08;14.97;;;7.93;;
8419;SDS011;4247;48.550;8.822;2023-04-16T07:59:35;16.90;;;9.30;;
8419;SDS011;4247;48.550;8.822;2023-04-16T08:02:02;16.20;;;8.23;;
8419;SDS011;4247;48.550;8.822;2023-04-16T08:04:30;10.97;;;6.93;;
8419;SDS011;4247;48.550;8.822;2023-04-16T08:06:56;14.10;;;7.90;;
8419;SDS011;4247;48.550;8.822;2023-04-16T08:09:25;13.93;;;7.30;;
8419;SDS011;4247;48.550;8.822;2023-04-16T08:11:52;9.70;;;6.93;;
8419;SDS011;4247;48.550;8.822;2023-04-16T08:14:20;12.07;;;7.13;;
8419;SDS011;4247;48.550;8.822;2023-04-16T08:16:47;13.57;;;8.00;;
8419;SDS011;4247;48.550;8.822;2023-04-16T08:19:14;13.83;;;7.83;;
8419;SDS011;4247;48.550;8.822;2023-04-16T08:21:41;14.73;;;8.53;;
8419;SDS011;4247;48.550;8.822;2023-04-16T08:24:07;14.27;;;7.03;;
8419;SDS011;4247;48.550;8.822;2023-04-16T08:26:34;12.07;;;7.53;;
8419;SDS011;4247;48.550;8.822;2023-04-16T08:29:01;17.53;;;8.93;;
8419;SDS011;4247;48.550;8.822;2023-04-16T08:31:29;14.67;;;8.23;;
8419;SDS011;4247;48.550;8.822;2023-04-16T08:33:56;15.77;;;8.63;;
8419;SDS011;4247;48.550;8.822;2023-04-16T08:36:23;13.53;;;7.87;;
8419;SDS011;4247;48.550;8.822;2023-04-16T08:38:49;12.63;;;7.80;;
8419;SDS011;4247;48.550;8.822;2023-04-16T08:41:16;13.60;;;8.20;;
8419;SDS011;4247;48.550;8.822;2023-04-16T08:43:46;11.63;;;7.50;;
8419;SDS011;4247;48.550;8.822;2023-04-16T08:46:15;10.90;;;6.63;;
8419;SDS011;4247;48.550;8.822;2023-04-16T08:48:44;12.37;;;6.97;;
8419;SDS011;4247;48.550;8.822;2023-04-16T08:51:15;13.40;;;6.97;;
8419;SDS011;4247;48.550;8.822;2023-04-16T08:53:47;12.37;;;7.47;;
8419;SDS011;4247;48.550;8.822;2023-04-16T08:56:18;14.33;;;7.30;;
8419;SDS011;4247;48.550;8.822;2023-04-16T08:58:46;12.63;;;7.47;;
8419;SDS011;4247;48.550;8.822;2023-04-16T09:01:14;13.03;;;8.10;;
8419;SDS011;4247;48.550;8.822;2023-04-16T09:03:42;13.67;;;7.27;;
8419;SDS011;4247;48.550;8.822;2023-04-16T09:06:12;11.97;;;6.77;;
8419;SDS011;4247;48.550;8.822;2023-04-16T09:08:39;11.67;;;6.67;;
8419;SDS011;4247;48.550;8.822;2023-04-16T09:11:08;13.23;;;7.33;;
8419;SDS011;4247;48.550;8.822;2023-04-16T09:13:36;12.93;;;7.07;;
8419;SDS011;4247;48.550;8.822;2023-04-16T09:16:03;11.10;;;6.37;;
8419;SDS011;4247;48.550;8.822;2023-04-16T09:18:32;14.83;;;7.40;;
8419;SDS011;4247;48.550;8.822;2023-04-16T09:21:00;11.07;;;7.27;;
8419;SDS011;4247;48.550;8.822;2023-04-16T09:23:28;9.00;;;6.17;;
8419;SDS011;4247;48.550;8.822;2023-04-16T09:25:56;8.73;;;6.47;;
8419;SDS011;4247;48.550;8.822;2023-04-16T09:28:39;14.77;;;7.43;;
8419;SDS011;4247;48.550;8.822;2023-04-16T09:31:08;10.97;;;6.83;;
8419;SDS011;4247;48.550;8.822;2023-04-16T09:33:36;12.13;;;7.80;;
8419;SDS011;4247;48.550;8.822;2023-04-16T09:36:04;9.57;;;6.93;;
8419;SDS011;4247;48.550;8.822;2023-04-16T09:38:47;11.47;;;7.40;;
8419;SDS011;4247;48.550;8.822;2023-04-16T09:41:14;9.73;;;6.80;;
8419;SDS011;4247;48.550;8.822;2023-04-16T09:43:46;14.33;;;8.20;;
8419;SDS011;4247;48.550;8.822;2023-04-16T09:46:18;11.03;;;7.77;;
8419;SDS011;4247;48.550;8.822;2023-04-16T09:48:45;11.90;;;7.07;;
8419;SDS011;4247;48.550;8.822;2023-04-16T09:51:13;11.13;;;6.93;;
8419;SDS011;4247;48.550;8.822;2023-04-16T09:53:40;13.83;;;7.90;;
8419;SDS011;4247;48.550;8.822;2023-04-16T09:56:07;12.17;;;7.07;;
8419;SDS011;4247;48.550;8.822;2023-04-16T09:58:34;11.63;;;6.67;;
8419;SDS011;4247;48.550;8.822;2023-04-16T10:01:02;10.53;;;6.50;;
8419;SDS011;4247;48.550;8.822;2023-04-16T10:03:30;13.23;;;7.77;;
8419;SDS011;4247;48.550;8.822;2023-04-16T10:05:59;13.73;;;8.07;;
8419;SDS011;4247;48.550;8.822;2023-04-16T10:08:28;11.43;;;7.37;;
8419;SDS011;4247;48.550;8.822;2023-04-16T10:10:55;10.30;;;6.27;;
8419;SDS011;4247;48.550;8.822;2023-04-16T10:13:22;14.40;;;7.33;;
8419;SDS011;4247;48.550;8.822;2023-04-16T10:15:51;9.40;;;7.00;;
8419;SDS011;4247;48.550;8.822;2023-04-16T10:18:20;16.67;;;7.93;;
8419;SDS011;4247;48.550;8.822;2023-04-16T10:20:47;13.23;;;7.43;;
8419;SDS011;4247;48.550;8.822;2023-04-16T10:23:15;13.10;;;7.17;;
8419;SDS011;4247;48.550;8.822;2023-04-16T10:25:44;14.80;;;7.23;;
8419;SDS011;4247;48.550;8.822;2023-04-16T10:28:12;12.87;;;6.63;;
8419;SDS011;4247;48.550;8.822;2023-04-16T10:30:40;12.33;;;6.60;;
8419;SDS011;4247;48.550;8.822;2023-04-16T10:33:12;13.80;;;7.63;;
8419;SDS011;4247;48.550;8.822;2023-04-16T10:35:39;14.83;;;7.50;;
8419;SDS011;4247;48.550;8.822;2023-04-16T10:38:21;10.17;;;6.77;;
8419;SDS011;4247;48.550;8.822;2023-04-16T10:40:52;17.03;;;7.97;;
8419;SDS011;4247;48.550;8.822;2023-04-16T10:43:23;12.17;;;7.87;;
8419;SDS011;4247;48.550;8.822;2023-04-16T10:45:50;15.73;;;8.80;;
8419;SDS011;4247;48.550;8.822;2023-04-16T10:48:19;15.27;;;8.27;;
8419;SDS011;4247;48.550;8.822;2023-04-16T10:50:52;13.63;;;7.67;;
8419;SDS011;4247;48.550;8.822;2023-04-16T10:53:22;11.90;;;7.50;;
8419;SDS011;4247;48.550;8.822;2023-04-16T10:55:58;13.97;;;8.43;;
8419;SDS011;4247;48.550;8.822;2023-04-16T10:58:37;12.47;;;7.67;;
8419;SDS011;4247;48.550;8.822;2023-04-16T11:01:05;14.13;;;7.33;;
8419;SDS011;4247;48.550;8.822;2023-04-16T11:03:42;10.37;;;7.20;;
8419;SDS011;4247;48.550;8.822;2023-04-16T11:06:10;11.90;;;7.67;;
8419;SDS011;4247;48.550;8.822;2023-04-16T11:08:38;12.60;;;7.23;;
8419;SDS011;4247;48.550;8.822;2023-04-16T11:11:09;12.77;;;7.17;;
8419;SDS011;4247;48.550;8.822;2023-04-16T11:13:35;11.13;;;6.97;;
8419;SDS011;4247;48.550;8.822;2023-04-16T11:16:02;11.23;;;7.13;;
8419;SDS011;4247;48.550;8.822;2023-04-16T11:18:29;11.67;;;6.97;;
8419;SDS011;4247;48.550;8.822;2023-04-16T11:20:56;10.40;;;6.60;;
8419;SDS011;4247;48.550;8.822;2023-04-16T11:23:23;12.60;;;7.40;;
8419;SDS011;4247;48.550;8.822;2023-04-16T11:25:50;14.00;;;7.07;;
8419;SDS011;4247;48.550;8.822;2023-04-16T11:28:31;15.23;;;8.40;;
8419;SDS011;4247;48.550;8.822;2023-04-16T11:30:58;13.30;;;8.63;;
8419;SDS011;4247;48.550;8.822;2023-04-16T11:33:34;17.27;;;9.77;;
8419;SDS011;4247;48.550;8.822;2023-04-16T11:36:01;15.03;;;9.47;;
8419;SDS011;4247;48.550;8.822;2023-04-16T11:38:34;14.40;;;9.27;;
8419;SDS011;4247;48.550;8.822;2023-04-16T11:41:01;14.10;;;7.93;;
8419;SDS011;4247;48.550;8.822;2023-04-16T11:43:28;14.00;;;8.70;;
8419;SDS011;4247;48.550;8.822;2023-04-16T11:45:58;14.70;;;9.37;;
8419;SDS011;4247;48.550;8.822;2023-04-16T11:51:11;12.77;;;7.50;;
8419;SDS011;4247;48.550;8.822;2023-04-16T11:53:43;11.00;;;7.40;;
8419;SDS011;4247;48.550;8.822;2023-04-16T11:56:11;10.63;;;6.87;;
8419;SDS011;4247;48.550;8.822;2023-04-16T11:58:39;13.70;;;7.63;;
8419;SDS011;4247;48.550;8.822;2023-04-16T12:01:08;14.70;;;7.87;;
8419;SDS011;4247;48.550;8.822;2023-04-16T12:03:41;15.03;;;7.30;;
8419;SDS011;4247;48.550;8.822;2023-04-16T12:06:10;9.33;;;7.27;;
8419;SDS011;4247;48.550;8.822;2023-04-16T12:08:37;9.57;;;7.37;;
8419;SDS011;4247;48.550;8.822;2023-04-16T12:11:04;10.37;;;6.70;;
8419;SDS011;4247;48.550;8.822;2023-04-16T12:13:30;13.13;;;7.10;;
8419;SDS011;4247;48.550;8.822;2023-04-16T12:16:06;10.53;;;7.33;;
8419;SDS011;4247;48.550;8.822;2023-04-16T12:19:00;12.10;;;6.17;;
8419;SDS011;4247;48.550;8.822;2023-04-16T12:21:35;10.57;;;6.00;;
8419;SDS011;4247;48.550;8.822;2023-04-16T12:24:02;7.30;;;5.20;;
8419;SDS011;4247;48.550;8.822;2023-04-16T12:26:34;7.87;;;6.33;;
8419;SDS011;4247;48.550;8.822;2023-04-16T12:29:12;7.67;;;4.10;;
8419;SDS011;4247;48.550;8.822;2023-04-16T12:31:42;9.07;;;6.00;;
8419;SDS011;4247;48.550;8.822;2023-04-16T12:34:09;7.90;;;5.43;;
8419;SDS011;4247;48.550;8.822;2023-04-16T12:36:35;8.63;;;5.17;;
8419;SDS011;4247;48.550;8.822;2023-04-16T12:39:02;8.97;;;5.10;;
8419;SDS011;4247;48.550;8.822;2023-04-16T12:41:29;5.90;;;4.57;;
8419;SDS011;4247;48.550;8.822;2023-04-16T12:44:06;7.47;;;4.83;;
8419;SDS011;4247;48.550;8.822;2023-04-16T12:46:36;6.90;;;4.57;;
8419;SDS011;4247;48.550;8.822;2023-04-16T12:49:04;6.13;;;4.27;;
8419;SDS011;4247;48.550;8.822;2023-04-16T12:51:31;6.70;;;4.63;;
8419;SDS011;4247;48.550;8.822;2023-04-16T12:53:58;13.70;;;4.80;;
8419;SDS011;4247;48.550;8.822;2023-04-16T12:56:25;8.53;;;5.00;;
8419;SDS011;4247;48.550;8.822;2023-04-16T12:58:52;7.50;;;4.90;;
8419;SDS011;4247;48.550;8.822;2023-04-16T13:01:19;6.17;;;4.40;;
8419;SDS011;4247;48.550;8.822;2023-04-16T13:03:47;6.83;;;3.77;;
8419;SDS011;4247;48.550;8.822;2023-04-16T13:06:15;6.93;;;4.30;;
8419;SDS011;4247;48.550;8.822;2023-04-16T13:08:43;6.47;;;4.00;;
8419;SDS011;4247;48.550;8.822;2023-04-16T13:11:10;7.53;;;4.03;;
8419;SDS011;4247;48.550;8.822;2023-04-16T13:13:37;5.30;;;4.17;;
8419;SDS011;4247;48.550;8.822;2023-04-16T13:16:04;5.50;;;3.83;;
8419;SDS011;4247;48.550;8.822;2023-04-16T13:18:32;4.73;;;3.40;;
8419;SDS011;4247;48.550;8.822;2023-04-16T13:20:59;2.73;;;2.07;;
8419;SDS011;4247;48.550;8.822;2023-04-16T13:23:27;2.80;;;2.50;;
8419;SDS011;4247;48.550;8.822;2023-04-16T13:25:54;1.77;;;1.50;;
8419;SDS011;4247;48.550;8.822;2023-04-16T13:28:21;2.10;;;1.30;;
8419;SDS011;4247;48.550;8.822;2023-04-16T13:30:48;1.37;;;1.10;;
8419;SDS011;4247;48.550;8.822;2023-04-16T13:33:14;2.80;;;1.10;;
8419;SDS011;4247;48.550;8.822;2023-04-16T13:35:41;1.87;;;1.30;;
8419;SDS011;4247;48.550;8.822;2023-04-16T13:38:08;2.47;;;1.10;;
8419;SDS011;4247;48.550;8.822;2023-04-16T13:40:36;1.17;;;1.07;;
8419;SDS011;4247;48.550;8.822;2023-04-16T13:43:02;1.47;;;0.87;;
8419;SDS011;4247;48.550;8.822;2023-04-16T13:45:29;1.13;;;0.80;;
8419;SDS011;4247;48.550;8.822;2023-04-16T13:47:56;0.83;;;0.80;;
8419;SDS011;4247;48.550;8.822;2023-04-16T13:50:22;0.83;;;0.70;;
8419;SDS011;4247;48.550;8.822;2023-04-16T13:52:49;1.17;;;0.77;;
8419;SDS011;4247;48.550;8.822;2023-04-16T13:55:16;1.30;;;0.80;;
8419;SDS011;4247;48.550;8.822;2023-04-16T13:57:45;2.40;;;0.83;;
8419;SDS011;4247;48.550;8.822;2023-04-16T14:00:12;1.30;;;0.90;;
8419;SDS011;4247;48.550;8.822;2023-04-16T14:02:40;1.40;;;0.60;;
8419;SDS011;4247;48.550;8.822;2023-04-16T14:05:07;1.30;;;0.87;;
8419;SDS011;4247;48.550;8.822;2023-04-16T14:07:34;1.37;;;1.07;;
8419;SDS011;4247;48.550;8.822;2023-04-16T14:10:01;0.57;;;0.57;;
8419;SDS011;4247;48.550;8.822;2023-04-16T14:12:27;1.10;;;0.70;;
8419;SDS011;4247;48.550;8.822;2023-04-16T14:14:56;0.93;;;0.83;;
8419;SDS011;4247;48.550;8.822;2023-04-16T14:17:23;0.67;;;0.67;;
8419;SDS011;4247;48.550;8.822;2023-04-16T14:19:50;0.60;;;0.60;;
8419;SDS011;4247;48.550;8.822;2023-04-16T14:22:17;0.87;;;0.60;;
8419;SDS011;4247;48.550;8.822;2023-04-16T14:24:43;1.03;;;0.70;;
8419;SDS011;4247;48.550;8.822;2023-04-16T14:27:10;0.53;;;0.53;;
8419;SDS011;4247;48.550;8.822;2023-04-16T14:29:37;1.40;;;0.90;;
8419;SDS011;4247;48.550;8.822;2023-04-16T14:32:06;1.43;;;1.10;;
8419;SDS011;4247;48.550;8.822;2023-04-16T14:34:33;0.70;;;0.70;;
8419;SDS011;4247;48.550;8.822;2023-04-16T14:37:00;0.67;;;0.60;;
8419;SDS011;4247;48.550;8.822;2023-04-16T14:39:26;0.90;;;0.60;;
8419;SDS011;4247;48.550;8.822;2023-04-16T14:41:53;0.93;;;0.60;;
8419;SDS011;4247;48.550;8.822;2023-04-16T14:44:20;0.60;;;0.60;;
8419;SDS011;4247;48.550;8.822;2023-04-16T14:46:47;0.90;;;0.50;;
8419;SDS011;4247;48.550;8.822;2023-04-16T14:49:15;0.80;;;0.60;;
8419;SDS011;4247;48.550;8.822;2023-04-16T14:51:42;0.70;;;0.60;;
8419;SDS011;4247;48.550;8.822;2023-04-16T14:54:10;0.70;;;0.50;;
8419;SDS011;4247;48.550;8.822;2023-04-16T14:56:37;0.80;;;0.60;;
8419;SDS011;4247;48.550;8.822;2023-04-16T14:59:03;0.70;;;0.70;;
8419;SDS011;4247;48.550;8.822;2023-04-16T15:01:31;1.27;;;0.73;;
8419;SDS011;4247;48.550;8.822;2023-04-16T15:03:58;0.77;;;0.77;;
8419;SDS011;4247;48.550;8.822;2023-04-16T15:06:28;0.70;;;0.70;;
8419;SDS011;4247;48.550;8.822;2023-04-16T15:08:56;1.47;;;0.90;;
8419;SDS011;4247;48.550;8.822;2023-04-16T15:11:22;0.70;;;0.70;;
8419;SDS011;4247;48.550;8.822;2023-04-16T15:13:49;1.00;;;0.80;;
8419;SDS011;4247;48.550;8.822;2023-04-16T15:16:16;1.10;;;1.00;;